Beaver Dam, WI (53916)

7:41 PM CST on February 09, 2016 (GMT -0600)
APRSWXNET | | Change Station
CLOSE
Current Station
Personal Weather Station
Location: Beaver Dam, WI
Elevation: 904 ft
Nearby Weather Stations

Elev 904 ft 43.45 °N, 88.83 °W | Updated 21 minutes ago

Overcast
Overcast
14 °F
Feels Like 6 °F
N
5
Wind Variable Wind from WNW
Gusts 12.0 mph

Today
High -- | Low -- °F
--% Chance of Precip.
Yesterday
High -- | Low -- °F
Precip. -- in
Pressure 29.94 in
Visibility 10.0 miles
Clouds Overcast 3600 ft
Windchill 6 °F
Dew Point 6 °F
Humidity 70%
Rainfall in
Snow Depth Not available.
7:02 AM 5:17 PM
Waxing Crescent, 3% visible
METAR KUNU 100135Z AUTO 30013G18KT 10SM OVC036 M10/M15 A2994 RMK AO2 T11051150
Pressure 29.94 in
Visibility 10.0 miles
Clouds Overcast 3600 ft
Windchill 6 °F
Dew Point 6 °F
Humidity 70%
Rainfall in
Snow Depth Not available.
7:02 AM 5:17 PM
Waxing Crescent, 3% visible
METAR KUNU 100135Z AUTO 30013G18KT 10SM OVC036 M10/M15 A2994 RMK AO2 T11051150

10-Day Weather Forecast

Almanac

Astronomy

Feb. 09, 2016 Rise Set
Actual Time
Civil Twilight
Nautical Twilight
Astronomical Twilight
Moon
Length of Visible Light
Length of Day
Tomorrow will be .
, % of the Moon is Illuminated

Today's Extremes

State Highs State Lows

Community

WunderPhotos

Upload Photos

1,891,760 photos uploaded!

WunderBlog® & News

Nearby

Air Quality

  Air Quality AQ Index Pollutant
Not available.

Snow Depth

Station Depth Elevation

Earthquake Activity

City Distance Mag. Time & Date
Minimum magnitude displayed is 2.5.

Coastal Water Temperatures

Place Temperature

Stations

Nearby Weather Stations

Station Location Temp. Windchill Dew Point Humidity Wind Precip. Elev Updated Type
                   

Watches & Warnings

There are currently no watches in effect.